METAR Data
IDs: Format: Raw Decoded Include TAF

Data at: 1227 UTC 23 Jun 2021

METAR for:K6B9 (Skaneateles Arpt, NY, US)
Text:K6B9 231215Z AUTO 25005KT 10SM FEW060 13/10 A3015 RMK AO2
Temperature: 13.0°C ( 55°F)
Dewpoint: 10.0°C ( 50°F) [RH = 82%]
Pressure (altimeter):30.15 inches Hg (1021.1 mb)
Winds:from the WSW (250 degrees) at 6 MPH (5 knots; 2.6 m/s)
Visibility:10 or more sm (16+ km)
Ceiling:at least 12,000 feet AGL
Clouds: few clouds at 6000 feet AGL
QC Flag:automated observation with no human augmentation
Text:K6B9 231155Z AUTO 22004KT 10SM FEW060 12/09 A3014 RMK AO2
Temperature: 12.0°C ( 54°F)
Dewpoint: 9.0°C ( 48°F) [RH = 82%]
Pressure (altimeter):30.14 inches Hg (1020.7 mb)
Winds:from the SW (220 degrees) at 5 MPH (4 knots; 2.1 m/s)
Visibility:10 or more sm (16+ km)
Ceiling:at least 12,000 feet AGL
Clouds: few clouds at 6000 feet AGL
QC Flag:automated observation with no human augmentation
Text:K6B9 231135Z AUTO VRB05KT 10SM FEW050 OVC065 11/09 A3014 RMK AO2
Temperature: 11.0°C ( 52°F)
Dewpoint: 9.0°C ( 48°F) [RH = 87%]
Pressure (altimeter):30.14 inches Hg (1020.7 mb)
Winds:variable direction winds at 6 MPH (5 knots; 2.6 m/s)
Visibility:10 or more sm (16+ km)
Ceiling:6500 feet AGL
Clouds: few clouds at 5000 feet AGL, overcast cloud deck at 6500 feet AGL
QC Flag:automated observation with no human augmentation
Text:K6B9 231115Z AUTO 23004KT 10SM FEW055 OVC065 11/09 A3014 RMK AO2
Temperature: 11.0°C ( 52°F)
Dewpoint: 9.0°C ( 48°F) [RH = 87%]
Pressure (altimeter):30.14 inches Hg (1020.7 mb)
Winds:from the SW (230 degrees) at 5 MPH (4 knots; 2.1 m/s)
Visibility:10 or more sm (16+ km)
Ceiling:6500 feet AGL
Clouds: few clouds at 5500 feet AGL, overcast cloud deck at 6500 feet AGL
QC Flag:automated observation with no human augmentation
Text:K6B9 231055Z AUTO 22004KT 10SM BKN065 OVC075 11/09 A3013 RMK AO2
Temperature: 11.0°C ( 52°F)
Dewpoint: 9.0°C ( 48°F) [RH = 87%]
Pressure (altimeter):30.13 inches Hg (1020.4 mb)
Winds:from the SW (220 degrees) at 5 MPH (4 knots; 2.1 m/s)
Visibility:10 or more sm (16+ km)
Ceiling:6500 feet AGL
Clouds: broken clouds at 6500 feet AGL, overcast cloud deck at 7500 feet AGL
QC Flag:automated observation with no human augmentation
Text:K6B9 231035Z AUTO 22004KT 10SM BKN070 11/09 A3012 RMK AO2
Temperature: 11.0°C ( 52°F)
Dewpoint: 9.0°C ( 48°F) [RH = 87%]
Pressure (altimeter):30.12 inches Hg (1020.1 mb)
Winds:from the SW (220 degrees) at 5 MPH (4 knots; 2.1 m/s)
Visibility:10 or more sm (16+ km)
Ceiling:7000 feet AGL
Clouds: broken clouds at 7000 feet AGL
QC Flag:automated observation with no human augmentation
Text:K6B9 231015Z AUTO 23004KT 10SM SCT060 BKN070 10/09 A3011 RMK AO2
Temperature: 10.0°C ( 50°F)
Dewpoint: 9.0°C ( 48°F) [RH = 93%]
Pressure (altimeter):30.11 inches Hg (1019.7 mb)
Winds:from the SW (230 degrees) at 5 MPH (4 knots; 2.1 m/s)
Visibility:10 or more sm (16+ km)
Ceiling:7000 feet AGL
Clouds: scattered clouds at 6000 feet AGL, broken clouds at 7000 feet AGL
QC Flag:automated observation with no human augmentation
Text:K6B9 230955Z AUTO 22005KT 10SM BKN060 10/09 A3010 RMK AO2
Temperature: 10.0°C ( 50°F)
Dewpoint: 9.0°C ( 48°F) [RH = 93%]
Pressure (altimeter):30.10 inches Hg (1019.4 mb)
Winds:from the SW (220 degrees) at 6 MPH (5 knots; 2.6 m/s)
Visibility:10 or more sm (16+ km)
Ceiling:6000 feet AGL
Clouds: broken clouds at 6000 feet AGL
QC Flag:automated observation with no human augmentation
Text:K6B9 230935Z AUTO 23005KT 10SM FEW070 09/08 A3009 RMK AO2
Temperature: 9.0°C ( 48°F)
Dewpoint: 8.0°C ( 46°F) [RH = 93%]
Pressure (altimeter):30.09 inches Hg (1019.0 mb)
Winds:from the SW (230 degrees) at 6 MPH (5 knots; 2.6 m/s)
Visibility:10 or more sm (16+ km)
Ceiling:at least 12,000 feet AGL
Clouds: few clouds at 7000 feet AGL
QC Flag:automated observation with no human augmentation
Text:K6B9 230915Z AUTO 24004KT 10SM SCT070 09/08 A3008 RMK AO2
Temperature: 9.0°C ( 48°F)
Dewpoint: 8.0°C ( 46°F) [RH = 93%]
Pressure (altimeter):30.08 inches Hg (1018.7 mb)
Winds:from the WSW (240 degrees) at 5 MPH (4 knots; 2.1 m/s)
Visibility:10 or more sm (16+ km)
Ceiling:at least 12,000 feet AGL
Clouds: scattered clouds at 7000 feet AGL
QC Flag:automated observation with no human augmentation
Text:K6B9 230855Z AUTO 22004KT 10SM CLR 10/09 A3007 RMK AO2
Temperature: 10.0°C ( 50°F)
Dewpoint: 9.0°C ( 48°F) [RH = 93%]
Pressure (altimeter):30.07 inches Hg (1018.4 mb)
Winds:from the SW (220 degrees) at 5 MPH (4 knots; 2.1 m/s)
Visibility:10 or more sm (16+ km)
Ceiling:at least 12,000 feet AGL
Clouds:sky clear below 12,000 feet AGL
QC Flag:automated observation with no human augmentation
Text:K6B9 230835Z AUTO 22004KT 10SM FEW070 10/09 A3006 RMK AO2
Temperature: 10.0°C ( 50°F)
Dewpoint: 9.0°C ( 48°F) [RH = 93%]
Pressure (altimeter):30.06 inches Hg (1018.0 mb)
Winds:from the SW (220 degrees) at 5 MPH (4 knots; 2.1 m/s)
Visibility:10 or more sm (16+ km)
Ceiling:at least 12,000 feet AGL
Clouds: few clouds at 7000 feet AGL
QC Flag:automated observation with no human augmentation
Text:K6B9 230815Z AUTO 22004KT 10SM CLR 10/09 A3005 RMK AO2
Temperature: 10.0°C ( 50°F)
Dewpoint: 9.0°C ( 48°F) [RH = 93%]
Pressure (altimeter):30.05 inches Hg (1017.7 mb)
Winds:from the SW (220 degrees) at 5 MPH (4 knots; 2.1 m/s)
Visibility:10 or more sm (16+ km)
Ceiling:at least 12,000 feet AGL
Clouds:sky clear below 12,000 feet AGL
QC Flag:automated observation with no human augmentation
Text:K6B9 230755Z AUTO 23006KT 10SM CLR 10/09 A3004 RMK AO2
Temperature: 10.0°C ( 50°F)
Dewpoint: 9.0°C ( 48°F) [RH = 93%]
Pressure (altimeter):30.04 inches Hg (1017.4 mb)
Winds:from the SW (230 degrees) at 7 MPH (6 knots; 3.1 m/s)
Visibility:10 or more sm (16+ km)
Ceiling:at least 12,000 feet AGL
Clouds:sky clear below 12,000 feet AGL
QC Flag:automated observation with no human augmentation
Text:K6B9 230735Z AUTO 24003KT 10SM CLR 10/09 A3003 RMK AO2
Temperature: 10.0°C ( 50°F)
Dewpoint: 9.0°C ( 48°F) [RH = 93%]
Pressure (altimeter):30.03 inches Hg (1017.0 mb)
Winds:from the WSW (240 degrees) at 3 MPH (3 knots; 1.5 m/s)
Visibility:10 or more sm (16+ km)
Ceiling:at least 12,000 feet AGL
Clouds:sky clear below 12,000 feet AGL
QC Flag:automated observation with no human augmentation
Text:K6B9 230715Z AUTO 00000KT 10SM CLR 10/09 A3003 RMK AO2
Temperature: 10.0°C ( 50°F)
Dewpoint: 9.0°C ( 48°F) [RH = 93%]
Pressure (altimeter):30.03 inches Hg (1017.0 mb)
Winds:calm
Visibility:10 or more sm (16+ km)
Ceiling:at least 12,000 feet AGL
Clouds:sky clear below 12,000 feet AGL
QC Flag:automated observation with no human augmentation
Text:K6B9 230655Z AUTO 00000KT 10SM CLR 09/09 A3002 RMK AO2
Temperature: 9.0°C ( 48°F)
Dewpoint: 9.0°C ( 48°F) [RH = 100%]
Pressure (altimeter):30.02 inches Hg (1016.7 mb)
Winds:calm
Visibility:10 or more sm (16+ km)
Ceiling:at least 12,000 feet AGL
Clouds:sky clear below 12,000 feet AGL
QC Flag:automated observation with no human augmentation
Text:K6B9 230635Z AUTO 00000KT 10SM CLR 09/08 A3002 RMK AO2
Temperature: 9.0°C ( 48°F)
Dewpoint: 8.0°C ( 46°F) [RH = 93%]
Pressure (altimeter):30.02 inches Hg (1016.7 mb)
Winds:calm
Visibility:10 or more sm (16+ km)
Ceiling:at least 12,000 feet AGL
Clouds:sky clear below 12,000 feet AGL
QC Flag:automated observation with no human augmentation
Text:K6B9 230615Z AUTO 24003KT 10SM CLR 10/08 A3002 RMK AO2
Temperature: 10.0°C ( 50°F)
Dewpoint: 8.0°C ( 46°F) [RH = 87%]
Pressure (altimeter):30.02 inches Hg (1016.7 mb)
Winds:from the WSW (240 degrees) at 3 MPH (3 knots; 1.5 m/s)
Visibility:10 or more sm (16+ km)
Ceiling:at least 12,000 feet AGL
Clouds:sky clear below 12,000 feet AGL
QC Flag:automated observation with no human augmentation
Text:K6B9 230555Z AUTO 24003KT 10SM CLR 09/07 A3001 RMK AO2
Temperature: 9.0°C ( 48°F)
Dewpoint: 7.0°C ( 45°F) [RH = 87%]
Pressure (altimeter):30.01 inches Hg (1016.3 mb)
Winds:from the WSW (240 degrees) at 3 MPH (3 knots; 1.5 m/s)
Visibility:10 or more sm (16+ km)
Ceiling:at least 12,000 feet AGL
Clouds:sky clear below 12,000 feet AGL
QC Flag:automated observation with no human augmentation
Text:K6B9 230535Z AUTO 25004KT 10SM CLR 10/07 A3000 RMK AO2
Temperature: 10.0°C ( 50°F)
Dewpoint: 7.0°C ( 45°F) [RH = 82%]
Pressure (altimeter):30.00 inches Hg (1016.0 mb)
Winds:from the WSW (250 degrees) at 5 MPH (4 knots; 2.1 m/s)
Visibility:10 or more sm (16+ km)
Ceiling:at least 12,000 feet AGL
Clouds:sky clear below 12,000 feet AGL
QC Flag:automated observation with no human augmentation
Text:K6B9 230515Z AUTO 26003KT 10SM CLR 10/08 A3000 RMK AO2
Temperature: 10.0°C ( 50°F)
Dewpoint: 8.0°C ( 46°F) [RH = 87%]
Pressure (altimeter):30.00 inches Hg (1016.0 mb)
Winds:from the W (260 degrees) at 3 MPH (3 knots; 1.5 m/s)
Visibility:10 or more sm (16+ km)
Ceiling:at least 12,000 feet AGL
Clouds:sky clear below 12,000 feet AGL
QC Flag:automated observation with no human augmentation
Text:K6B9 230455Z AUTO 26004KT 10SM CLR 10/08 A3000 RMK AO2
Temperature: 10.0°C ( 50°F)
Dewpoint: 8.0°C ( 46°F) [RH = 87%]
Pressure (altimeter):30.00 inches Hg (1016.0 mb)
Winds:from the W (260 degrees) at 5 MPH (4 knots; 2.1 m/s)
Visibility:10 or more sm (16+ km)
Ceiling:at least 12,000 feet AGL
Clouds:sky clear below 12,000 feet AGL
QC Flag:automated observation with no human augmentation
Text:K6B9 230435Z AUTO 00000KT 10SM CLR 10/07 A3000 RMK AO2
Temperature: 10.0°C ( 50°F)
Dewpoint: 7.0°C ( 45°F) [RH = 82%]
Pressure (altimeter):30.00 inches Hg (1016.0 mb)
Winds:calm
Visibility:10 or more sm (16+ km)
Ceiling:at least 12,000 feet AGL
Clouds:sky clear below 12,000 feet AGL
QC Flag:automated observation with no human augmentation
Text:K6B9 230415Z AUTO 23005KT 10SM CLR 10/07 A2999 RMK AO2
Temperature: 10.0°C ( 50°F)
Dewpoint: 7.0°C ( 45°F) [RH = 82%]
Pressure (altimeter):29.99 inches Hg (1015.7 mb)
Winds:from the SW (230 degrees) at 6 MPH (5 knots; 2.6 m/s)
Visibility:10 or more sm (16+ km)
Ceiling:at least 12,000 feet AGL
Clouds:sky clear below 12,000 feet AGL
QC Flag:automated observation with no human augmentation
Text:K6B9 230355Z AUTO 24004KT 10SM CLR 10/07 A2998 RMK AO2
Temperature: 10.0°C ( 50°F)
Dewpoint: 7.0°C ( 45°F) [RH = 82%]
Pressure (altimeter):29.98 inches Hg (1015.3 mb)
Winds:from the WSW (240 degrees) at 5 MPH (4 knots; 2.1 m/s)
Visibility:10 or more sm (16+ km)
Ceiling:at least 12,000 feet AGL
Clouds:sky clear below 12,000 feet AGL
QC Flag:automated observation with no human augmentation
Text:K6B9 230335Z AUTO 26005KT 10SM CLR 10/08 A2998 RMK AO2
Temperature: 10.0°C ( 50°F)
Dewpoint: 8.0°C ( 46°F) [RH = 87%]
Pressure (altimeter):29.98 inches Hg (1015.3 mb)
Winds:from the W (260 degrees) at 6 MPH (5 knots; 2.6 m/s)
Visibility:10 or more sm (16+ km)
Ceiling:at least 12,000 feet AGL
Clouds:sky clear below 12,000 feet AGL
QC Flag:automated observation with no human augmentation
Text:K6B9 230315Z AUTO 00000KT 10SM CLR 09/08 A2998 RMK AO2
Temperature: 9.0°C ( 48°F)
Dewpoint: 8.0°C ( 46°F) [RH = 93%]
Pressure (altimeter):29.98 inches Hg (1015.3 mb)
Winds:calm
Visibility:10 or more sm (16+ km)
Ceiling:at least 12,000 feet AGL
Clouds:sky clear below 12,000 feet AGL
QC Flag:automated observation with no human augmentation
Text:K6B9 230255Z AUTO 00000KT 10SM CLR 09/09 A2998 RMK AO2
Temperature: 9.0°C ( 48°F)
Dewpoint: 9.0°C ( 48°F) [RH = 100%]
Pressure (altimeter):29.98 inches Hg (1015.3 mb)
Winds:calm
Visibility:10 or more sm (16+ km)
Ceiling:at least 12,000 feet AGL
Clouds:sky clear below 12,000 feet AGL
QC Flag:automated observation with no human augmentation
Text:K6B9 230235Z AUTO 00000KT 10SM CLR 08/08 A2998 RMK AO2
Temperature: 8.0°C ( 46°F)
Dewpoint: 8.0°C ( 46°F) [RH = 100%]
Pressure (altimeter):29.98 inches Hg (1015.3 mb)
Winds:calm
Visibility:10 or more sm (16+ km)
Ceiling:at least 12,000 feet AGL
Clouds:sky clear below 12,000 feet AGL
QC Flag:automated observation with no human augmentation
Text:K6B9 230215Z AUTO 00000KT 10SM CLR 09/09 A2997 RMK AO2
Temperature: 9.0°C ( 48°F)
Dewpoint: 9.0°C ( 48°F) [RH = 100%]
Pressure (altimeter):29.97 inches Hg (1015.0 mb)
Winds:calm
Visibility:10 or more sm (16+ km)
Ceiling:at least 12,000 feet AGL
Clouds:sky clear below 12,000 feet AGL
QC Flag:automated observation with no human augmentation
Text:K6B9 230155Z AUTO 00000KT 10SM CLR 09/09 A2997 RMK AO2
Temperature: 9.0°C ( 48°F)
Dewpoint: 9.0°C ( 48°F) [RH = 100%]
Pressure (altimeter):29.97 inches Hg (1015.0 mb)
Winds:calm
Visibility:10 or more sm (16+ km)
Ceiling:at least 12,000 feet AGL
Clouds:sky clear below 12,000 feet AGL
QC Flag:automated observation with no human augmentation
Text:K6B9 230135Z AUTO 00000KT 10SM CLR 10/09 A2996 RMK AO2
Temperature: 10.0°C ( 50°F)
Dewpoint: 9.0°C ( 48°F) [RH = 93%]
Pressure (altimeter):29.96 inches Hg (1014.6 mb)
Winds:calm
Visibility:10 or more sm (16+ km)
Ceiling:at least 12,000 feet AGL
Clouds:sky clear below 12,000 feet AGL
QC Flag:automated observation with no human augmentation
Text:K6B9 230115Z AUTO 00000KT 10SM CLR 10/09 A2995 RMK AO2
Temperature: 10.0°C ( 50°F)
Dewpoint: 9.0°C ( 48°F) [RH = 93%]
Pressure (altimeter):29.95 inches Hg (1014.3 mb)
Winds:calm
Visibility:10 or more sm (16+ km)
Ceiling:at least 12,000 feet AGL
Clouds:sky clear below 12,000 feet AGL
QC Flag:automated observation with no human augmentation
Text:K6B9 230055Z AUTO 00000KT 10SM CLR 11/10 A2994 RMK AO2
Temperature: 11.0°C ( 52°F)
Dewpoint: 10.0°C ( 50°F) [RH = 94%]
Pressure (altimeter):29.94 inches Hg (1014.0 mb)
Winds:calm
Visibility:10 or more sm (16+ km)
Ceiling:at least 12,000 feet AGL
Clouds:sky clear below 12,000 feet AGL
QC Flag:automated observation with no human augmentation
Text:K6B9 230035Z AUTO 00000KT 10SM FEW050 13/08 A2994 RMK AO2
Temperature: 13.0°C ( 55°F)
Dewpoint: 8.0°C ( 46°F) [RH = 72%]
Pressure (altimeter):29.94 inches Hg (1014.0 mb)
Winds:calm
Visibility:10 or more sm (16+ km)
Ceiling:at least 12,000 feet AGL
Clouds: few clouds at 5000 feet AGL
QC Flag:automated observation with no human augmentation